sensor_id;sensor_type;location;lat;lon;timestamp;P1;durP1;ratioP1;P2;durP2;ratioP2
2710;SDS011;20721;47.402;8.550;2023-08-30T00:01:53;2.51;;;2.51;;
2710;SDS011;20721;47.402;8.550;2023-08-30T00:03:53;2.61;;;2.61;;
2710;SDS011;20721;47.402;8.550;2023-08-30T00:07:53;2.39;;;2.39;;
2710;SDS011;20721;47.402;8.550;2023-08-30T00:09:53;2.68;;;2.68;;
2710;SDS011;20721;47.402;8.550;2023-08-30T00:13:53;2.81;;;2.81;;
2710;SDS011;20721;47.402;8.550;2023-08-30T00:18:54;2.70;;;2.70;;
2710;SDS011;20721;47.402;8.550;2023-08-30T00:21:54;2.61;;;2.61;;
2710;SDS011;20721;47.402;8.550;2023-08-30T00:24:53;2.55;;;2.55;;
2710;SDS011;20721;47.402;8.550;2023-08-30T00:28:53;2.85;;;2.85;;
2710;SDS011;20721;47.402;8.550;2023-08-30T00:30:54;3.13;;;3.13;;
2710;SDS011;20721;47.402;8.550;2023-08-30T00:32:54;3.21;;;3.21;;
2710;SDS011;20721;47.402;8.550;2023-08-30T00:34:53;3.06;;;3.06;;
2710;SDS011;20721;47.402;8.550;2023-08-30T00:36:53;3.03;;;3.03;;
2710;SDS011;20721;47.402;8.550;2023-08-30T00:38:53;2.54;;;2.54;;
2710;SDS011;20721;47.402;8.550;2023-08-30T00:40:53;2.95;;;2.95;;
2710;SDS011;20721;47.402;8.550;2023-08-30T00:42:53;3.31;;;3.31;;
2710;SDS011;20721;47.402;8.550;2023-08-30T00:44:53;3.13;;;3.13;;
2710;SDS011;20721;47.402;8.550;2023-08-30T00:46:53;3.02;;;3.02;;
2710;SDS011;20721;47.402;8.550;2023-08-30T00:49:53;2.97;;;2.97;;
2710;SDS011;20721;47.402;8.550;2023-08-30T00:52:54;3.34;;;3.34;;
2710;SDS011;20721;47.402;8.550;2023-08-30T00:54:53;2.75;;;2.75;;
2710;SDS011;20721;47.402;8.550;2023-08-30T00:56:54;3.13;;;3.13;;
2710;SDS011;20721;47.402;8.550;2023-08-30T00:58:53;2.90;;;2.90;;
2710;SDS011;20721;47.402;8.550;2023-08-30T01:01:54;2.95;;;2.95;;
2710;SDS011;20721;47.402;8.550;2023-08-30T01:03:53;2.84;;;2.84;;
2710;SDS011;20721;47.402;8.550;2023-08-30T01:05:53;3.26;;;3.26;;
2710;SDS011;20721;47.402;8.550;2023-08-30T01:07:53;3.49;;;3.49;;
2710;SDS011;20721;47.402;8.550;2023-08-30T01:09:53;2.94;;;2.94;;
2710;SDS011;20721;47.402;8.550;2023-08-30T01:12:00;3.57;;;3.57;;
2710;SDS011;20721;47.402;8.550;2023-08-30T01:14:00;2.84;;;2.84;;
2710;SDS011;20721;47.402;8.550;2023-08-30T01:15:57;3.04;;;3.04;;
2710;SDS011;20721;47.402;8.550;2023-08-30T01:20:04;3.15;;;3.15;;
2710;SDS011;20721;47.402;8.550;2023-08-30T01:23:58;3.26;;;3.26;;
2710;SDS011;20721;47.402;8.550;2023-08-30T01:28:54;3.43;;;3.43;;
2710;SDS011;20721;47.402;8.550;2023-08-30T01:30:55;3.31;;;3.31;;
2710;SDS011;20721;47.402;8.550;2023-08-30T01:32:54;2.69;;;2.69;;
2710;SDS011;20721;47.402;8.550;2023-08-30T01:34:57;3.64;;;3.64;;
2710;SDS011;20721;47.402;8.550;2023-08-30T01:37:55;3.88;;;3.88;;
2710;SDS011;20721;47.402;8.550;2023-08-30T01:39:54;3.39;;;3.39;;
2710;SDS011;20721;47.402;8.550;2023-08-30T01:41:54;3.80;;;3.80;;
2710;SDS011;20721;47.402;8.550;2023-08-30T01:43:54;3.49;;;3.49;;
2710;SDS011;20721;47.402;8.550;2023-08-30T01:46:54;3.72;;;3.72;;
2710;SDS011;20721;47.402;8.550;2023-08-30T01:50:54;3.67;;;3.67;;
2710;SDS011;20721;47.402;8.550;2023-08-30T01:52:54;4.27;;;4.27;;
2710;SDS011;20721;47.402;8.550;2023-08-30T01:54:55;3.93;;;3.93;;
2710;SDS011;20721;47.402;8.550;2023-08-30T01:57:53;3.43;;;3.43;;
2710;SDS011;20721;47.402;8.550;2023-08-30T01:59:53;3.30;;;3.30;;
2710;SDS011;20721;47.402;8.550;2023-08-30T02:01:53;3.38;;;3.38;;
2710;SDS011;20721;47.402;8.550;2023-08-30T02:03:54;3.56;;;3.56;;
2710;SDS011;20721;47.402;8.550;2023-08-30T02:11:00;3.33;;;3.33;;
2710;SDS011;20721;47.402;8.550;2023-08-30T02:12:58;3.28;;;3.28;;
2710;SDS011;20721;47.402;8.550;2023-08-30T02:14:55;3.52;;;3.52;;
2710;SDS011;20721;47.402;8.550;2023-08-30T02:16:55;3.68;;;3.68;;
2710;SDS011;20721;47.402;8.550;2023-08-30T02:19:54;3.79;;;3.79;;
2710;SDS011;20721;47.402;8.550;2023-08-30T02:22:54;3.85;;;3.85;;
2710;SDS011;20721;47.402;8.550;2023-08-30T02:25:54;3.87;;;3.87;;
2710;SDS011;20721;47.402;8.550;2023-08-30T02:27:53;3.13;;;3.13;;
2710;SDS011;20721;47.402;8.550;2023-08-30T02:29:53;3.25;;;3.25;;
2710;SDS011;20721;47.402;8.550;2023-08-30T02:31:53;3.64;;;3.64;;
2710;SDS011;20721;47.402;8.550;2023-08-30T02:33:53;3.57;;;3.57;;
2710;SDS011;20721;47.402;8.550;2023-08-30T02:35:53;3.67;;;3.67;;
2710;SDS011;20721;47.402;8.550;2023-08-30T02:37:53;3.45;;;3.45;;
2710;SDS011;20721;47.402;8.550;2023-08-30T02:41:53;3.35;;;3.35;;
2710;SDS011;20721;47.402;8.550;2023-08-30T02:43:53;4.19;;;4.19;;
2710;SDS011;20721;47.402;8.550;2023-08-30T02:45:53;3.77;;;3.77;;
2710;SDS011;20721;47.402;8.550;2023-08-30T02:49:53;3.96;;;3.96;;
2710;SDS011;20721;47.402;8.550;2023-08-30T02:53:53;4.06;;;4.06;;
2710;SDS011;20721;47.402;8.550;2023-08-30T02:59:53;3.73;;;3.73;;
2710;SDS011;20721;47.402;8.550;2023-08-30T03:01:54;4.53;;;4.53;;
2710;SDS011;20721;47.402;8.550;2023-08-30T03:03:55;4.84;;;4.84;;
2710;SDS011;20721;47.402;8.550;2023-08-30T03:05:54;4.20;;;4.20;;
2710;SDS011;20721;47.402;8.550;2023-08-30T03:07:53;4.85;;;4.83;;
2710;SDS011;20721;47.402;8.550;2023-08-30T03:09:53;5.44;;;5.41;;
2710;SDS011;20721;47.402;8.550;2023-08-30T03:11:54;6.03;;;6.03;;
2710;SDS011;20721;47.402;8.550;2023-08-30T03:13:54;5.88;;;5.88;;
2710;SDS011;20721;47.402;8.550;2023-08-30T03:15:54;6.06;;;6.06;;
2710;SDS011;20721;47.402;8.550;2023-08-30T03:21:54;6.36;;;6.36;;
2710;SDS011;20721;47.402;8.550;2023-08-30T03:23:53;5.97;;;5.97;;
2710;SDS011;20721;47.402;8.550;2023-08-30T03:25:54;6.78;;;6.78;;
2710;SDS011;20721;47.402;8.550;2023-08-30T03:27:54;6.62;;;6.62;;
2710;SDS011;20721;47.402;8.550;2023-08-30T03:29:54;6.65;;;6.65;;
2710;SDS011;20721;47.402;8.550;2023-08-30T03:31:54;5.49;;;5.49;;
2710;SDS011;20721;47.402;8.550;2023-08-30T03:33:56;5.91;;;5.91;;
2710;SDS011;20721;47.402;8.550;2023-08-30T03:35:54;6.07;;;6.07;;
2710;SDS011;20721;47.402;8.550;2023-08-30T03:37:53;6.45;;;6.45;;
2710;SDS011;20721;47.402;8.550;2023-08-30T03:39:53;5.57;;;5.57;;
2710;SDS011;20721;47.402;8.550;2023-08-30T03:41:55;5.47;;;5.47;;
2710;SDS011;20721;47.402;8.550;2023-08-30T03:43:54;5.45;;;5.45;;
2710;SDS011;20721;47.402;8.550;2023-08-30T03:45:54;5.55;;;5.55;;
2710;SDS011;20721;47.402;8.550;2023-08-30T03:47:54;5.50;;;5.50;;
2710;SDS011;20721;47.402;8.550;2023-08-30T03:49:54;5.95;;;5.95;;
2710;SDS011;20721;47.402;8.550;2023-08-30T03:51:54;6.04;;;6.04;;
2710;SDS011;20721;47.402;8.550;2023-08-30T03:53:54;6.38;;;6.38;;
2710;SDS011;20721;47.402;8.550;2023-08-30T03:55:54;5.74;;;5.74;;
2710;SDS011;20721;47.402;8.550;2023-08-30T03:57:54;5.03;;;5.03;;
2710;SDS011;20721;47.402;8.550;2023-08-30T03:59:54;5.94;;;5.94;;
2710;SDS011;20721;47.402;8.550;2023-08-30T04:01:54;7.00;;;7.00;;
2710;SDS011;20721;47.402;8.550;2023-08-30T04:03:54;5.59;;;5.59;;
2710;SDS011;20721;47.402;8.550;2023-08-30T04:05:55;5.26;;;5.26;;
2710;SDS011;20721;47.402;8.550;2023-08-30T04:07:54;5.35;;;5.35;;
2710;SDS011;20721;47.402;8.550;2023-08-30T04:10:57;5.63;;;5.63;;
2710;SDS011;20721;47.402;8.550;2023-08-30T04:14:54;6.44;;;6.44;;
2710;SDS011;20721;47.402;8.550;2023-08-30T04:16:54;5.34;;;5.34;;
2710;SDS011;20721;47.402;8.550;2023-08-30T04:19:54;5.69;;;5.69;;
2710;SDS011;20721;47.402;8.550;2023-08-30T04:21:54;5.56;;;5.56;;
2710;SDS011;20721;47.402;8.550;2023-08-30T04:25:54;5.44;;;5.44;;
2710;SDS011;20721;47.402;8.550;2023-08-30T04:27:54;5.98;;;5.98;;
2710;SDS011;20721;47.402;8.550;2023-08-30T04:31:54;6.32;;;6.32;;
2710;SDS011;20721;47.402;8.550;2023-08-30T04:33:54;5.70;;;5.70;;
2710;SDS011;20721;47.402;8.550;2023-08-30T04:35:54;5.69;;;5.69;;
2710;SDS011;20721;47.402;8.550;2023-08-30T04:40:57;5.96;;;5.96;;
2710;SDS011;20721;47.402;8.550;2023-08-30T04:42:54;6.05;;;6.05;;
2710;SDS011;20721;47.402;8.550;2023-08-30T04:44:54;5.86;;;5.86;;
2710;SDS011;20721;47.402;8.550;2023-08-30T04:46:54;6.21;;;6.21;;
2710;SDS011;20721;47.402;8.550;2023-08-30T04:49:54;6.03;;;6.03;;
2710;SDS011;20721;47.402;8.550;2023-08-30T04:51:54;6.38;;;6.37;;
2710;SDS011;20721;47.402;8.550;2023-08-30T04:53:54;7.38;;;7.28;;
2710;SDS011;20721;47.402;8.550;2023-08-30T04:55:54;7.52;;;7.52;;
2710;SDS011;20721;47.402;8.550;2023-08-30T04:57:55;7.06;;;7.06;;
2710;SDS011;20721;47.402;8.550;2023-08-30T05:00:55;6.90;;;6.90;;
2710;SDS011;20721;47.402;8.550;2023-08-30T05:03:54;6.86;;;6.86;;
2710;SDS011;20721;47.402;8.550;2023-08-30T05:06:54;7.39;;;7.34;;
2710;SDS011;20721;47.402;8.550;2023-08-30T05:08:54;7.51;;;7.51;;
2710;SDS011;20721;47.402;8.550;2023-08-30T05:10:56;7.75;;;7.64;;
2710;SDS011;20721;47.402;8.550;2023-08-30T05:12:57;7.91;;;7.91;;
2710;SDS011;20721;47.402;8.550;2023-08-30T05:15:54;7.94;;;7.83;;
2710;SDS011;20721;47.402;8.550;2023-08-30T05:18:54;8.94;;;8.76;;
2710;SDS011;20721;47.402;8.550;2023-08-30T05:20:54;7.79;;;7.57;;
2710;SDS011;20721;47.402;8.550;2023-08-30T05:22:54;7.91;;;7.90;;
2710;SDS011;20721;47.402;8.550;2023-08-30T05:24:54;7.81;;;7.81;;
2710;SDS011;20721;47.402;8.550;2023-08-30T05:27:54;7.08;;;7.08;;
2710;SDS011;20721;47.402;8.550;2023-08-30T05:30:54;6.37;;;6.37;;
2710;SDS011;20721;47.402;8.550;2023-08-30T05:32:54;6.03;;;6.03;;
2710;SDS011;20721;47.402;8.550;2023-08-30T05:34:54;6.41;;;6.41;;
2710;SDS011;20721;47.402;8.550;2023-08-30T05:36:54;6.11;;;6.11;;
2710;SDS011;20721;47.402;8.550;2023-08-30T05:38:54;6.33;;;6.33;;
2710;SDS011;20721;47.402;8.550;2023-08-30T05:40:55;6.53;;;6.53;;
2710;SDS011;20721;47.402;8.550;2023-08-30T05:42:55;7.07;;;7.07;;
2710;SDS011;20721;47.402;8.550;2023-08-30T05:44:54;6.29;;;6.29;;
2710;SDS011;20721;47.402;8.550;2023-08-30T05:46:54;6.85;;;6.85;;
2710;SDS011;20721;47.402;8.550;2023-08-30T05:48:54;7.68;;;7.68;;
2710;SDS011;20721;47.402;8.550;2023-08-30T05:50:55;7.30;;;7.30;;
2710;SDS011;20721;47.402;8.550;2023-08-30T05:53:54;7.53;;;7.53;;
2710;SDS011;20721;47.402;8.550;2023-08-30T05:55:54;6.99;;;6.99;;
2710;SDS011;20721;47.402;8.550;2023-08-30T05:57:54;7.82;;;7.82;;
2710;SDS011;20721;47.402;8.550;2023-08-30T05:59:54;7.60;;;7.60;;
2710;SDS011;20721;47.402;8.550;2023-08-30T06:01:55;7.80;;;7.80;;
2710;SDS011;20721;47.402;8.550;2023-08-30T06:03:55;8.12;;;8.12;;
2710;SDS011;20721;47.402;8.550;2023-08-30T06:05:54;8.02;;;8.02;;
2710;SDS011;20721;47.402;8.550;2023-08-30T06:07:54;7.42;;;7.42;;
2710;SDS011;20721;47.402;8.550;2023-08-30T06:09:54;8.48;;;8.48;;
2710;SDS011;20721;47.402;8.550;2023-08-30T06:11:54;7.71;;;7.71;;
2710;SDS011;20721;47.402;8.550;2023-08-30T06:13:54;7.78;;;7.78;;
2710;SDS011;20721;47.402;8.550;2023-08-30T06:15:55;8.02;;;8.02;;
2710;SDS011;20721;47.402;8.550;2023-08-30T06:17:56;7.09;;;7.09;;
2710;SDS011;20721;47.402;8.550;2023-08-30T06:19:54;7.53;;;7.53;;
2710;SDS011;20721;47.402;8.550;2023-08-30T06:21:54;7.36;;;7.36;;
2710;SDS011;20721;47.402;8.550;2023-08-30T06:23:54;7.11;;;7.11;;
2710;SDS011;20721;47.402;8.550;2023-08-30T06:25:55;7.16;;;7.16;;
2710;SDS011;20721;47.402;8.550;2023-08-30T06:28:05;8.27;;;7.69;;
2710;SDS011;20721;47.402;8.550;2023-08-30T06:29:54;7.73;;;7.73;;
2710;SDS011;20721;47.402;8.550;2023-08-30T06:31:55;7.64;;;7.64;;
2710;SDS011;20721;47.402;8.550;2023-08-30T06:33:54;7.73;;;7.73;;
2710;SDS011;20721;47.402;8.550;2023-08-30T06:35:57;7.31;;;7.31;;
2710;SDS011;20721;47.402;8.550;2023-08-30T06:37:54;6.86;;;6.86;;
2710;SDS011;20721;47.402;8.550;2023-08-30T06:39:54;7.07;;;7.07;;
2710;SDS011;20721;47.402;8.550;2023-08-30T06:41:54;6.52;;;6.52;;
2710;SDS011;20721;47.402;8.550;2023-08-30T06:43:54;7.06;;;7.06;;
2710;SDS011;20721;47.402;8.550;2023-08-30T06:45:57;7.81;;;7.81;;
2710;SDS011;20721;47.402;8.550;2023-08-30T06:47:54;7.05;;;7.05;;
2710;SDS011;20721;47.402;8.550;2023-08-30T06:49:54;7.13;;;7.13;;
2710;SDS011;20721;47.402;8.550;2023-08-30T06:51:54;7.53;;;7.53;;
2710;SDS011;20721;47.402;8.550;2023-08-30T06:53:54;6.93;;;6.93;;
2710;SDS011;20721;47.402;8.550;2023-08-30T06:56:01;5.87;;;5.87;;
2710;SDS011;20721;47.402;8.550;2023-08-30T06:57:58;5.13;;;5.13;;
2710;SDS011;20721;47.402;8.550;2023-08-30T06:59:54;5.93;;;5.93;;
2710;SDS011;20721;47.402;8.550;2023-08-30T07:01:54;6.42;;;6.42;;
2710;SDS011;20721;47.402;8.550;2023-08-30T07:03:54;6.02;;;6.02;;
2710;SDS011;20721;47.402;8.550;2023-08-30T07:05:55;6.14;;;5.81;;
2710;SDS011;20721;47.402;8.550;2023-08-30T07:07:54;5.80;;;5.80;;
2710;SDS011;20721;47.402;8.550;2023-08-30T07:09:54;5.69;;;5.69;;
2710;SDS011;20721;47.402;8.550;2023-08-30T07:12:58;6.16;;;6.16;;
2710;SDS011;20721;47.402;8.550;2023-08-30T07:14:54;6.47;;;6.47;;
2710;SDS011;20721;47.402;8.550;2023-08-30T07:16:54;5.76;;;5.76;;
2710;SDS011;20721;47.402;8.550;2023-08-30T07:18:54;6.14;;;6.14;;
2710;SDS011;20721;47.402;8.550;2023-08-30T07:20:54;5.99;;;5.99;;
2710;SDS011;20721;47.402;8.550;2023-08-30T07:22:54;5.46;;;5.46;;
2710;SDS011;20721;47.402;8.550;2023-08-30T07:24:54;5.65;;;5.65;;
2710;SDS011;20721;47.402;8.550;2023-08-30T07:26:54;5.26;;;5.26;;
2710;SDS011;20721;47.402;8.550;2023-08-30T07:28:55;4.81;;;4.81;;
2710;SDS011;20721;47.402;8.550;2023-08-30T07:31:01;5.71;;;5.70;;
2710;SDS011;20721;47.402;8.550;2023-08-30T07:32:54;5.24;;;5.24;;
2710;SDS011;20721;47.402;8.550;2023-08-30T07:34:54;5.31;;;5.31;;
2710;SDS011;20721;47.402;8.550;2023-08-30T07:36:58;4.81;;;4.81;;
2710;SDS011;20721;47.402;8.550;2023-08-30T07:38:54;4.26;;;4.26;;
2710;SDS011;20721;47.402;8.550;2023-08-30T07:40:54;4.64;;;4.64;;
2710;SDS011;20721;47.402;8.550;2023-08-30T07:42:54;5.31;;;5.31;;
2710;SDS011;20721;47.402;8.550;2023-08-30T07:44:54;4.80;;;4.80;;
2710;SDS011;20721;47.402;8.550;2023-08-30T07:46:54;4.68;;;4.68;;
2710;SDS011;20721;47.402;8.550;2023-08-30T07:48:54;4.49;;;4.49;;
2710;SDS011;20721;47.402;8.550;2023-08-30T07:50:54;4.70;;;4.70;;
2710;SDS011;20721;47.402;8.550;2023-08-30T07:52:56;5.06;;;5.06;;
2710;SDS011;20721;47.402;8.550;2023-08-30T07:54:54;4.49;;;4.49;;
2710;SDS011;20721;47.402;8.550;2023-08-30T07:56:54;4.81;;;4.81;;
2710;SDS011;20721;47.402;8.550;2023-08-30T07:58:54;5.24;;;5.24;;
2710;SDS011;20721;47.402;8.550;2023-08-30T08:00:54;5.25;;;5.25;;
2710;SDS011;20721;47.402;8.550;2023-08-30T08:02:54;4.94;;;4.94;;
2710;SDS011;20721;47.402;8.550;2023-08-30T08:04:54;5.57;;;5.57;;
2710;SDS011;20721;47.402;8.550;2023-08-30T08:07:54;5.51;;;5.51;;
2710;SDS011;20721;47.402;8.550;2023-08-30T08:09:54;4.36;;;4.36;;
2710;SDS011;20721;47.402;8.550;2023-08-30T08:12:54;4.24;;;4.24;;
2710;SDS011;20721;47.402;8.550;2023-08-30T08:14:54;4.21;;;4.21;;
2710;SDS011;20721;47.402;8.550;2023-08-30T08:16:54;4.51;;;4.51;;
2710;SDS011;20721;47.402;8.550;2023-08-30T08:18:54;3.55;;;3.55;;
2710;SDS011;20721;47.402;8.550;2023-08-30T08:20:54;3.86;;;3.86;;
2710;SDS011;20721;47.402;8.550;2023-08-30T08:22:55;4.33;;;4.33;;
2710;SDS011;20721;47.402;8.550;2023-08-30T08:24:56;3.73;;;3.73;;
2710;SDS011;20721;47.402;8.550;2023-08-30T08:26:54;3.49;;;3.49;;
2710;SDS011;20721;47.402;8.550;2023-08-30T08:28:54;3.50;;;3.50;;
2710;SDS011;20721;47.402;8.550;2023-08-30T08:30:55;4.12;;;4.12;;
2710;SDS011;20721;47.402;8.550;2023-08-30T08:32:55;4.13;;;4.13;;
2710;SDS011;20721;47.402;8.550;2023-08-30T08:34:54;3.19;;;3.19;;
2710;SDS011;20721;47.402;8.550;2023-08-30T08:37:55;3.41;;;3.41;;
2710;SDS011;20721;47.402;8.550;2023-08-30T08:39:56;3.20;;;3.20;;
2710;SDS011;20721;47.402;8.550;2023-08-30T08:41:55;2.73;;;2.73;;
2710;SDS011;20721;47.402;8.550;2023-08-30T08:43:54;3.22;;;3.22;;
2710;SDS011;20721;47.402;8.550;2023-08-30T08:45:56;2.82;;;2.82;;
2710;SDS011;20721;47.402;8.550;2023-08-30T08:47:55;2.79;;;2.79;;
2710;SDS011;20721;47.402;8.550;2023-08-30T08:49:54;2.66;;;2.66;;
2710;SDS011;20721;47.402;8.550;2023-08-30T08:51:55;3.20;;;3.20;;
2710;SDS011;20721;47.402;8.550;2023-08-30T08:53:54;2.55;;;2.55;;
2710;SDS011;20721;47.402;8.550;2023-08-30T08:55:55;2.90;;;2.90;;
2710;SDS011;20721;47.402;8.550;2023-08-30T08:57:55;2.57;;;2.57;;
2710;SDS011;20721;47.402;8.550;2023-08-30T08:59:55;2.88;;;2.88;;
2710;SDS011;20721;47.402;8.550;2023-08-30T09:01:55;3.05;;;3.05;;
2710;SDS011;20721;47.402;8.550;2023-08-30T09:03:55;2.38;;;2.38;;
2710;SDS011;20721;47.402;8.550;2023-08-30T09:05:56;2.78;;;2.78;;
2710;SDS011;20721;47.402;8.550;2023-08-30T09:07:54;2.36;;;2.36;;
2710;SDS011;20721;47.402;8.550;2023-08-30T09:09:54;2.24;;;2.24;;
2710;SDS011;20721;47.402;8.550;2023-08-30T09:12:02;2.41;;;2.41;;
2710;SDS011;20721;47.402;8.550;2023-08-30T09:13:54;2.05;;;2.05;;
2710;SDS011;20721;47.402;8.550;2023-08-30T09:15:54;2.18;;;2.18;;
2710;SDS011;20721;47.402;8.550;2023-08-30T09:17:56;2.36;;;2.36;;
2710;SDS011;20721;47.402;8.550;2023-08-30T09:20:04;2.06;;;2.06;;
2710;SDS011;20721;47.402;8.550;2023-08-30T09:22:04;1.83;;;1.83;;
2710;SDS011;20721;47.402;8.550;2023-08-30T09:25:55;1.69;;;1.69;;
2710;SDS011;20721;47.402;8.550;2023-08-30T09:27:58;1.87;;;1.87;;
2710;SDS011;20721;47.402;8.550;2023-08-30T09:29:58;2.54;;;2.54;;
2710;SDS011;20721;47.402;8.550;2023-08-30T09:31:55;2.67;;;2.67;;
2710;SDS011;20721;47.402;8.550;2023-08-30T09:33:57;2.35;;;2.35;;
2710;SDS011;20721;47.402;8.550;2023-08-30T09:35:55;2.37;;;2.37;;
2710;SDS011;20721;47.402;8.550;2023-08-30T09:37:55;2.19;;;2.19;;
2710;SDS011;20721;47.402;8.550;2023-08-30T09:39:58;2.44;;;2.44;;
2710;SDS011;20721;47.402;8.550;2023-08-30T09:41:55;2.33;;;2.33;;
2710;SDS011;20721;47.402;8.550;2023-08-30T09:43:56;2.55;;;2.55;;
2710;SDS011;20721;47.402;8.550;2023-08-30T09:45:54;2.20;;;2.20;;
2710;SDS011;20721;47.402;8.550;2023-08-30T09:48:55;2.58;;;2.58;;
2710;SDS011;20721;47.402;8.550;2023-08-30T09:50:57;2.45;;;2.45;;
2710;SDS011;20721;47.402;8.550;2023-08-30T09:52:58;2.54;;;2.54;;
2710;SDS011;20721;47.402;8.550;2023-08-30T09:54:55;2.07;;;2.07;;
2710;SDS011;20721;47.402;8.550;2023-08-30T09:56:55;2.15;;;2.15;;
2710;SDS011;20721;47.402;8.550;2023-08-30T09:59:55;2.47;;;2.47;;
2710;SDS011;20721;47.402;8.550;2023-08-30T10:01:56;1.70;;;1.70;;
2710;SDS011;20721;47.402;8.550;2023-08-30T10:03:55;1.87;;;1.87;;
2710;SDS011;20721;47.402;8.550;2023-08-30T10:05:56;1.90;;;1.90;;
2710;SDS011;20721;47.402;8.550;2023-08-30T10:07:55;2.11;;;2.11;;
2710;SDS011;20721;47.402;8.550;2023-08-30T10:10:06;1.93;;;1.93;;
2710;SDS011;20721;47.402;8.550;2023-08-30T10:11:55;2.41;;;2.41;;
2710;SDS011;20721;47.402;8.550;2023-08-30T10:13:55;4.31;;;4.31;;
2710;SDS011;20721;47.402;8.550;2023-08-30T10:15:57;2.54;;;2.54;;
2710;SDS011;20721;47.402;8.550;2023-08-30T10:17:55;3.44;;;3.44;;
2710;SDS011;20721;47.402;8.550;2023-08-30T10:19:56;2.65;;;2.65;;
2710;SDS011;20721;47.402;8.550;2023-08-30T10:22:05;2.36;;;2.36;;
2710;SDS011;20721;47.402;8.550;2023-08-30T10:23:59;2.41;;;2.41;;
2710;SDS011;20721;47.402;8.550;2023-08-30T10:25:56;2.13;;;2.13;;
2710;SDS011;20721;47.402;8.550;2023-08-30T10:27:56;2.51;;;2.51;;
2710;SDS011;20721;47.402;8.550;2023-08-30T10:29:55;2.32;;;2.32;;
2710;SDS011;20721;47.402;8.550;2023-08-30T10:31:55;2.59;;;2.59;;
2710;SDS011;20721;47.402;8.550;2023-08-30T10:34:11;2.43;;;2.43;;
2710;SDS011;20721;47.402;8.550;2023-08-30T10:36:56;2.32;;;2.32;;
2710;SDS011;20721;47.402;8.550;2023-08-30T10:38:58;2.37;;;2.37;;
2710;SDS011;20721;47.402;8.550;2023-08-30T10:41:05;1.92;;;1.92;;
2710;SDS011;20721;47.402;8.550;2023-08-30T10:42:58;2.41;;;2.41;;
2710;SDS011;20721;47.402;8.550;2023-08-30T10:45:08;2.16;;;2.16;;
2710;SDS011;20721;47.402;8.550;2023-08-30T10:47:01;2.22;;;2.22;;
2710;SDS011;20721;47.402;8.550;2023-08-30T10:48:55;2.76;;;2.76;;
2710;SDS011;20721;47.402;8.550;2023-08-30T10:50:55;2.82;;;2.82;;
2710;SDS011;20721;47.402;8.550;2023-08-30T10:56:27;2.47;;;2.47;;
2710;SDS011;20721;47.402;8.550;2023-08-30T10:58:03;2.38;;;2.38;;
2710;SDS011;20721;47.402;8.550;2023-08-30T11:00:25;2.43;;;2.43;;
2710;SDS011;20721;47.402;8.550;2023-08-30T11:02:00;2.40;;;2.40;;
2710;SDS011;20721;47.402;8.550;2023-08-30T11:03:55;2.64;;;2.64;;
2710;SDS011;20721;47.402;8.550;2023-08-30T11:05:55;2.21;;;2.21;;
2710;SDS011;20721;47.402;8.550;2023-08-30T11:07:55;2.38;;;2.38;;
2710;SDS011;20721;47.402;8.550;2023-08-30T11:09:55;3.22;;;3.22;;
2710;SDS011;20721;47.402;8.550;2023-08-30T11:11:56;2.16;;;2.16;;
2710;SDS011;20721;47.402;8.550;2023-08-30T11:14:03;2.93;;;2.93;;
2710;SDS011;20721;47.402;8.550;2023-08-30T11:15:59;2.90;;;2.90;;
2710;SDS011;20721;47.402;8.550;2023-08-30T11:18:02;2.59;;;2.59;;
2710;SDS011;20721;47.402;8.550;2023-08-30T11:20:05;2.46;;;2.46;;
2710;SDS011;20721;47.402;8.550;2023-08-30T11:21:55;2.64;;;2.64;;
2710;SDS011;20721;47.402;8.550;2023-08-30T11:23:55;2.45;;;2.45;;
2710;SDS011;20721;47.402;8.550;2023-08-30T11:25:59;1.99;;;1.99;;
2710;SDS011;20721;47.402;8.550;2023-08-30T11:28:56;3.01;;;3.01;;
2710;SDS011;20721;47.402;8.550;2023-08-30T11:30:55;2.34;;;2.34;;
2710;SDS011;20721;47.402;8.550;2023-08-30T11:32:57;3.18;;;3.18;;
2710;SDS011;20721;47.402;8.550;2023-08-30T11:35:05;2.51;;;2.51;;
2710;SDS011;20721;47.402;8.550;2023-08-30T11:36:57;2.19;;;2.19;;
2710;SDS011;20721;47.402;8.550;2023-08-30T11:38:55;2.41;;;2.41;;
2710;SDS011;20721;47.402;8.550;2023-08-30T11:40:55;2.31;;;2.31;;
2710;SDS011;20721;47.402;8.550;2023-08-30T11:42:55;2.67;;;2.67;;
2710;SDS011;20721;47.402;8.550;2023-08-30T11:44:55;2.02;;;2.02;;
2710;SDS011;20721;47.402;8.550;2023-08-30T11:46:58;2.33;;;2.33;;
2710;SDS011;20721;47.402;8.550;2023-08-30T11:48:55;2.42;;;2.42;;
2710;SDS011;20721;47.402;8.550;2023-08-30T11:50:59;2.18;;;2.18;;
2710;SDS011;20721;47.402;8.550;2023-08-30T11:52:55;2.59;;;2.59;;
2710;SDS011;20721;47.402;8.550;2023-08-30T11:54:57;2.20;;;2.20;;
2710;SDS011;20721;47.402;8.550;2023-08-30T11:56:55;2.67;;;2.67;;
2710;SDS011;20721;47.402;8.550;2023-08-30T11:59:55;2.72;;;2.72;;
2710;SDS011;20721;47.402;8.550;2023-08-30T12:01:55;2.81;;;2.81;;
2710;SDS011;20721;47.402;8.550;2023-08-30T12:04:08;2.42;;;2.42;;
2710;SDS011;20721;47.402;8.550;2023-08-30T12:05:56;2.26;;;2.26;;
2710;SDS011;20721;47.402;8.550;2023-08-30T12:07:56;2.46;;;2.46;;
2710;SDS011;20721;47.402;8.550;2023-08-30T12:10:10;2.97;;;2.97;;
2710;SDS011;20721;47.402;8.550;2023-08-30T12:12:04;3.11;;;3.11;;
2710;SDS011;20721;47.402;8.550;2023-08-30T12:14:01;2.52;;;2.52;;
2710;SDS011;20721;47.402;8.550;2023-08-30T12:15:56;3.13;;;3.13;;
2710;SDS011;20721;47.402;8.550;2023-08-30T12:17:55;2.82;;;2.82;;
2710;SDS011;20721;47.402;8.550;2023-08-30T12:19:56;2.36;;;2.36;;
2710;SDS011;20721;47.402;8.550;2023-08-30T12:22:02;2.58;;;2.58;;
2710;SDS011;20721;47.402;8.550;2023-08-30T12:23:59;2.65;;;2.65;;
2710;SDS011;20721;47.402;8.550;2023-08-30T12:26:06;2.64;;;2.64;;
2710;SDS011;20721;47.402;8.550;2023-08-30T12:27:55;2.95;;;2.95;;
2710;SDS011;20721;47.402;8.550;2023-08-30T12:29:55;2.71;;;2.71;;
2710;SDS011;20721;47.402;8.550;2023-08-30T12:31:55;4.45;;;4.45;;
2710;SDS011;20721;47.402;8.550;2023-08-30T12:33:55;2.89;;;2.89;;
2710;SDS011;20721;47.402;8.550;2023-08-30T12:35:55;2.40;;;2.40;;
2710;SDS011;20721;47.402;8.550;2023-08-30T12:37:55;2.33;;;2.33;;
2710;SDS011;20721;47.402;8.550;2023-08-30T12:39:55;2.36;;;2.36;;
2710;SDS011;20721;47.402;8.550;2023-08-30T12:41:55;2.37;;;2.37;;
2710;SDS011;20721;47.402;8.550;2023-08-30T12:43:55;2.45;;;2.45;;
2710;SDS011;20721;47.402;8.550;2023-08-30T12:45:55;2.56;;;2.56;;
2710;SDS011;20721;47.402;8.550;2023-08-30T12:47:55;2.49;;;2.49;;
2710;SDS011;20721;47.402;8.550;2023-08-30T12:49:55;2.65;;;2.65;;
2710;SDS011;20721;47.402;8.550;2023-08-30T12:51:55;3.15;;;3.15;;
2710;SDS011;20721;47.402;8.550;2023-08-30T12:53:55;2.25;;;2.25;;
2710;SDS011;20721;47.402;8.550;2023-08-30T12:55:55;2.73;;;2.73;;
2710;SDS011;20721;47.402;8.550;2023-08-30T12:57:56;2.91;;;2.91;;
2710;SDS011;20721;47.402;8.550;2023-08-30T13:00:56;2.90;;;2.90;;
2710;SDS011;20721;47.402;8.550;2023-08-30T13:02:55;3.02;;;3.02;;
2710;SDS011;20721;47.402;8.550;2023-08-30T13:04:55;2.51;;;2.51;;
2710;SDS011;20721;47.402;8.550;2023-08-30T13:06:55;2.75;;;2.75;;
2710;SDS011;20721;47.402;8.550;2023-08-30T13:08:55;2.65;;;2.65;;
2710;SDS011;20721;47.402;8.550;2023-08-30T13:10:55;2.61;;;2.61;;
2710;SDS011;20721;47.402;8.550;2023-08-30T13:12:55;3.20;;;3.20;;
2710;SDS011;20721;47.402;8.550;2023-08-30T13:14:55;2.51;;;2.51;;
2710;SDS011;20721;47.402;8.550;2023-08-30T13:16:55;2.65;;;2.65;;
2710;SDS011;20721;47.402;8.550;2023-08-30T13:18:55;2.85;;;2.85;;
2710;SDS011;20721;47.402;8.550;2023-08-30T13:20:55;3.35;;;3.35;;
2710;SDS011;20721;47.402;8.550;2023-08-30T13:22:55;2.76;;;2.76;;
2710;SDS011;20721;47.402;8.550;2023-08-30T13:24:57;2.36;;;2.36;;
2710;SDS011;20721;47.402;8.550;2023-08-30T13:26:55;3.09;;;3.09;;
2710;SDS011;20721;47.402;8.550;2023-08-30T13:28:55;3.52;;;3.52;;
2710;SDS011;20721;47.402;8.550;2023-08-30T13:30:55;3.09;;;3.09;;
2710;SDS011;20721;47.402;8.550;2023-08-30T13:32:55;2.74;;;2.74;;
2710;SDS011;20721;47.402;8.550;2023-08-30T13:34:56;3.48;;;3.48;;
2710;SDS011;20721;47.402;8.550;2023-08-30T13:36:55;3.53;;;3.53;;